createdAt,value
2017-09-23T00:01:50.908Z,53.17
2017-09-23T00:04:19.475Z,57.40
2017-09-23T00:06:48.580Z,55.77
2017-09-23T00:09:16.875Z,56.40
2017-09-23T00:11:46.515Z,51.90
2017-09-23T00:14:14.730Z,52.70
2017-09-23T00:16:43.019Z,54.00
2017-09-23T00:19:11.305Z,52.87
2017-09-23T00:21:40.414Z,54.87
2017-09-23T00:24:09.467Z,54.53
2017-09-23T00:26:38.525Z,55.97
2017-09-23T00:29:08.378Z,57.53
2017-09-23T00:31:36.687Z,56.47
2017-09-23T00:34:06.110Z,55.70
2017-09-23T00:36:34.453Z,56.70
2017-09-23T00:39:03.870Z,52.20
2017-09-23T00:41:32.925Z,56.00
2017-09-23T00:44:02.012Z,56.10
2017-09-23T00:46:30.298Z,58.07
2017-09-23T00:48:58.584Z,59.23
2017-09-23T00:51:26.923Z,62.40
2017-09-23T00:53:55.206Z,58.77
2017-09-23T00:56:23.507Z,56.10
2017-09-23T00:58:53.001Z,56.93
2017-09-23T01:01:21.713Z,58.30
2017-09-23T01:03:50.011Z,61.50
2017-09-23T01:06:19.509Z,58.50
2017-09-23T01:08:49.175Z,59.17
2017-09-23T01:11:18.131Z,59.13
2017-09-23T01:13:46.479Z,60.50
2017-09-23T01:16:14.771Z,55.73
2017-09-23T01:18:44.558Z,57.57
2017-09-23T01:21:13.675Z,56.07
2017-09-23T01:23:41.964Z,55.47
2017-09-23T01:26:11.594Z,52.60
2017-09-23T01:28:40.190Z,56.10
2017-09-23T01:31:08.475Z,54.07
2017-09-23T01:33:37.603Z,53.37
2017-09-23T01:36:06.736Z,51.37
2017-09-23T01:38:36.546Z,47.23
2017-09-23T01:41:04.834Z,49.03
2017-09-23T01:43:33.163Z,54.27
2017-09-23T01:46:02.229Z,48.07
2017-09-23T01:48:32.026Z,51.80
2017-09-23T01:51:01.512Z,51.90
2017-09-23T01:53:29.791Z,52.33
2017-09-23T01:55:59.430Z,51.10
2017-09-23T01:58:28.027Z,54.40
2017-09-23T02:00:56.313Z,53.10
2017-09-23T02:03:25.742Z,53.40
2017-09-23T02:05:54.888Z,52.33
2017-09-23T02:08:23.938Z,53.60
2017-09-23T02:10:52.231Z,57.10
2017-09-23T02:13:22.108Z,57.60
2017-09-23T02:15:50.422Z,63.10
2017-09-23T02:18:18.728Z,55.73
2017-09-23T02:20:47.058Z,60.07
2017-09-23T02:23:15.356Z,56.97
2017-09-23T02:25:44.990Z,63.77
2017-09-23T02:28:13.967Z,63.03
2017-09-23T02:30:43.020Z,60.27
2017-09-23T02:33:12.075Z,64.87
2017-09-23T02:35:41.595Z,65.60
2017-09-23T02:38:11.238Z,61.60
2017-09-23T02:40:40.170Z,62.43
2017-09-23T02:43:09.871Z,59.87
2017-09-23T02:45:38.437Z,61.70
2017-09-23T02:48:08.097Z,62.47
2017-09-23T02:50:37.101Z,59.07
2017-09-23T02:53:05.778Z,54.90
2017-09-23T02:55:34.458Z,55.50
2017-09-23T02:58:02.794Z,58.30
2017-09-23T03:00:32.219Z,58.30
2017-09-23T03:03:00.498Z,57.70
2017-09-23T03:05:28.826Z,63.97
2017-09-23T03:07:57.114Z,67.40
2017-09-23T03:10:25.411Z,67.93
2017-09-23T03:12:55.246Z,67.57
2017-09-23T03:15:23.542Z,69.90
2017-09-23T03:17:51.842Z,69.20
2017-09-23T03:20:21.736Z,71.10
2017-09-23T03:22:51.390Z,69.63
2017-09-23T03:25:20.358Z,67.63
2017-09-23T03:27:48.727Z,66.47
2017-09-23T03:30:17.804Z,64.90
2017-09-23T03:32:46.094Z,67.30
2017-09-23T03:35:14.430Z,68.30
2017-09-23T03:37:43.858Z,65.00
2017-09-23T03:40:12.151Z,64.70
2017-09-23T03:42:41.250Z,65.80
2017-09-23T03:45:10.307Z,64.60
2017-09-23T03:47:39.364Z,67.20
2017-09-23T03:50:09.208Z,64.83
2017-09-23T03:52:37.504Z,65.17
2017-09-23T03:55:06.944Z,60.60
2017-09-23T03:57:35.271Z,67.97
2017-09-23T04:00:03.623Z,65.93
2017-09-23T04:02:31.871Z,67.97
2017-09-23T04:05:01.934Z,63.40
2017-09-23T04:07:31.236Z,65.83
2017-09-23T04:09:59.526Z,65.37
2017-09-23T04:12:27.870Z,64.70
2017-09-23T04:14:57.513Z,65.70
2017-09-23T04:17:25.672Z,64.93
2017-09-23T04:19:55.383Z,64.07
2017-09-23T04:22:23.959Z,62.30
2017-09-23T04:24:52.271Z,63.87
2017-09-23T04:27:21.432Z,63.10
2017-09-23T04:29:50.131Z,60.37
2017-09-23T04:32:19.215Z,60.77
2017-09-23T04:34:47.599Z,58.37
2017-09-23T04:37:17.026Z,55.40
2017-09-23T04:39:45.314Z,59.70
2017-09-23T04:42:13.667Z,57.67
2017-09-23T04:44:41.963Z,57.63
2017-09-23T04:47:11.749Z,60.53
2017-09-23T04:49:40.083Z,54.20
2017-09-23T04:52:08.378Z,60.47
2017-09-23T04:54:38.023Z,58.57
2017-09-23T04:57:07.427Z,55.40
2017-09-23T04:59:35.725Z,54.67
2017-09-23T05:02:04.002Z,56.00
2017-09-23T05:04:33.686Z,56.23
2017-09-23T05:07:01.843Z,56.93
2017-09-23T05:09:30.250Z,57.43
2017-09-23T05:11:58.594Z,62.13
2017-09-23T05:14:26.898Z,58.80
2017-09-23T05:16:55.178Z,63.67
2017-09-23T05:19:24.895Z,66.63
2017-09-23T05:21:53.082Z,60.30
2017-09-23T05:24:21.395Z,61.77
2017-09-23T05:26:49.743Z,58.03
2017-09-23T05:29:18.055Z,58.97
2017-09-23T05:31:47.129Z,59.83
2017-09-23T05:34:16.255Z,61.37
2017-09-23T05:36:45.312Z,59.73
2017-09-23T05:39:13.603Z,57.83
2017-09-23T05:41:41.955Z,58.77
2017-09-23T05:44:10.248Z,58.50
2017-09-23T05:46:38.547Z,59.60
2017-09-23T05:49:06.918Z,58.20
2017-09-23T05:51:35.976Z,57.90
2017-09-23T05:54:04.268Z,55.20
2017-09-23T05:56:32.603Z,56.20
2017-09-23T05:59:02.242Z,52.97
2017-09-23T06:01:31.168Z,53.10
2017-09-23T06:04:01.010Z,51.90
2017-09-23T06:06:29.303Z,55.30
2017-09-23T06:08:57.597Z,53.90
2017-09-23T06:11:27.063Z,52.83
2017-09-23T06:13:56.854Z,50.53
2017-09-23T06:16:25.143Z,51.80
2017-09-23T06:18:54.834Z,52.40
2017-09-23T06:21:23.408Z,54.87
2017-09-23T06:23:53.206Z,51.63
2017-09-23T06:26:22.346Z,52.87
2017-09-23T06:28:52.160Z,48.00
2017-09-23T06:31:20.462Z,46.67
2017-09-23T06:33:50.164Z,44.70
2017-09-23T06:36:19.102Z,48.70
2017-09-23T06:38:48.180Z,50.10
2017-09-23T06:41:16.867Z,46.43
2017-09-23T06:43:46.501Z,50.10
2017-09-23T06:46:15.063Z,49.57
2017-09-23T06:48:43.398Z,48.40
2017-09-23T06:51:11.686Z,47.50
2017-09-23T06:53:40.743Z,50.60
2017-09-23T06:56:09.086Z,51.50
2017-09-23T06:58:38.147Z,48.17
2017-09-23T07:01:07.780Z,46.40
2017-09-23T07:03:37.506Z,63.67
2017-09-23T07:06:05.794Z,48.20
2017-09-23T07:08:34.074Z,50.97
2017-09-23T07:11:03.762Z,47.77
2017-09-23T07:13:31.919Z,50.87
2017-09-23T07:16:00.211Z,51.70
2017-09-23T07:18:28.940Z,49.47
2017-09-23T07:20:58.359Z,47.83
2017-09-23T07:23:27.994Z,47.20
2017-09-23T07:25:56.616Z,48.57
2017-09-23T07:28:26.243Z,49.20
2017-09-23T07:30:55.168Z,50.27
2017-09-23T07:33:23.522Z,49.17
2017-09-23T07:35:53.166Z,46.70
2017-09-23T07:38:21.736Z,44.87
2017-09-23T07:40:50.845Z,47.80
2017-09-23T07:43:19.158Z,44.87
2017-09-23T07:45:49.739Z,48.93
2017-09-23T07:48:18.095Z,48.77
2017-09-23T07:50:47.158Z,48.30
2017-09-23T07:53:16.791Z,47.07
2017-09-23T07:55:45.754Z,53.70
2017-09-23T07:58:15.403Z,51.70
2017-09-23T08:00:43.945Z,48.40
2017-09-23T08:03:13.331Z,47.50
2017-09-23T08:05:42.384Z,43.07
2017-09-23T08:08:11.059Z,47.30
2017-09-23T08:10:39.526Z,47.27
2017-09-23T08:13:08.218Z,45.90
2017-09-23T08:15:37.287Z,49.87
2017-09-23T08:18:06.990Z,46.03
2017-09-23T08:20:35.666Z,45.90
2017-09-23T08:23:04.715Z,45.57
2017-09-23T08:25:33.047Z,47.70
2017-09-23T08:28:01.326Z,44.77
2017-09-23T08:30:30.002Z,46.80
2017-09-23T08:32:59.431Z,46.17
2017-09-23T08:35:28.103Z,44.87
2017-09-23T08:37:56.391Z,44.70
2017-09-23T08:40:26.350Z,44.67
2017-09-23T08:42:54.507Z,44.00
2017-09-23T08:45:24.302Z,46.70
2017-09-23T08:47:54.314Z,44.97
2017-09-23T08:50:22.484Z,44.07
2017-09-23T08:52:50.774Z,41.80
2017-09-23T08:55:19.110Z,41.77
2017-09-23T08:57:47.428Z,45.20
2017-09-23T09:00:16.471Z,41.20
2017-09-23T09:02:44.807Z,45.00
2017-09-23T09:05:13.855Z,40.23
2017-09-23T09:07:43.269Z,41.60
2017-09-23T09:10:13.120Z,44.97
2017-09-23T09:12:41.403Z,46.17
2017-09-23T09:15:09.678Z,43.37
2017-09-23T09:17:38.047Z,42.53
2017-09-23T09:20:07.465Z,50.53
2017-09-23T09:22:35.757Z,45.60
2017-09-23T09:25:04.219Z,45.87
2017-09-23T09:27:32.499Z,44.93
2017-09-23T09:30:02.286Z,51.10
2017-09-23T09:32:30.655Z,44.90
2017-09-23T09:34:58.938Z,39.20
2017-09-23T09:37:27.218Z,39.10
2017-09-23T09:39:56.889Z,35.00
2017-09-23T09:42:25.446Z,37.27
2017-09-23T09:44:55.077Z,37.53
2017-09-23T09:47:24.422Z,38.17
2017-09-23T09:49:53.148Z,36.60
2017-09-23T09:52:22.775Z,39.03
2017-09-23T09:54:51.791Z,36.03
2017-09-23T09:57:21.226Z,35.80
2017-09-23T09:59:49.532Z,38.93
2017-09-23T10:02:17.880Z,39.30
2017-09-23T10:04:47.674Z,38.97
2017-09-23T10:07:15.960Z,41.30
2017-09-23T10:09:45.990Z,41.33
2017-09-23T10:12:14.915Z,38.80
2017-09-23T10:14:44.334Z,37.67
2017-09-23T10:17:15.250Z,40.40
2017-09-23T10:19:43.939Z,38.43
2017-09-23T10:22:13.574Z,42.00
2017-09-23T10:24:42.462Z,38.80
2017-09-23T10:27:12.094Z,41.03
2017-09-23T10:29:40.259Z,40.00
2017-09-23T10:32:09.348Z,39.23
2017-09-23T10:34:40.516Z,39.80
2017-09-23T10:37:09.230Z,41.60
2017-09-23T10:39:37.987Z,38.27
2017-09-23T10:42:07.421Z,39.70
2017-09-23T10:44:35.703Z,41.57
2017-09-23T10:47:05.002Z,42.17
2017-09-23T10:49:33.683Z,39.93
2017-09-23T10:52:01.975Z,42.03
2017-09-23T10:54:31.674Z,41.27
2017-09-23T10:57:00.231Z,39.60
2017-09-23T10:59:29.664Z,42.20
2017-09-23T11:01:57.986Z,40.50
2017-09-23T11:04:27.613Z,38.00
2017-09-23T11:06:56.167Z,40.43
2017-09-23T11:09:24.503Z,39.10
2017-09-23T11:11:54.296Z,40.57
2017-09-23T11:14:23.999Z,43.90
2017-09-23T11:16:52.996Z,36.63
2017-09-23T11:19:21.318Z,39.30
2017-09-23T11:21:50.766Z,35.20
2017-09-23T11:24:19.122Z,38.40
2017-09-23T11:26:47.406Z,39.40
2017-09-23T11:29:15.686Z,38.33
2017-09-23T11:31:44.043Z,35.30
2017-09-23T11:34:12.331Z,38.67
2017-09-23T11:36:41.379Z,38.70
2017-09-23T11:39:10.476Z,37.53
2017-09-23T11:41:38.776Z,39.13
2017-09-23T11:44:07.088Z,40.37
2017-09-23T11:46:35.816Z,39.30
2017-09-23T11:49:04.111Z,41.90
2017-09-23T11:51:32.381Z,36.00
2017-09-23T11:54:00.715Z,37.33
2017-09-23T11:56:30.897Z,39.17
2017-09-23T11:59:00.603Z,38.10
2017-09-23T12:01:28.931Z,36.27
2017-09-23T12:03:58.727Z,37.90
2017-09-23T12:06:27.818Z,35.17
2017-09-23T12:08:57.819Z,38.03
2017-09-23T12:11:27.467Z,41.70
2017-09-23T12:13:55.637Z,40.77
2017-09-23T12:16:23.975Z,39.30
2017-09-23T12:18:52.271Z,37.23
2017-09-23T12:21:20.579Z,37.90
2017-09-23T12:23:48.964Z,36.60
2017-09-23T12:26:19.926Z,34.77
2017-09-23T12:28:49.475Z,33.80
2017-09-23T12:31:18.080Z,33.07
2017-09-23T12:33:46.367Z,34.23
2017-09-23T12:36:16.198Z,31.87
2017-09-23T12:38:45.716Z,31.90
2017-09-23T12:41:14.390Z,29.70
2017-09-23T12:43:44.022Z,28.60
2017-09-23T12:46:12.990Z,32.10
2017-09-23T12:48:42.782Z,30.73
2017-09-23T12:51:11.834Z,29.13
2017-09-23T12:53:41.298Z,26.27
2017-09-23T12:56:09.578Z,30.80
2017-09-23T12:58:37.872Z,29.60
2017-09-23T13:01:07.562Z,28.40
2017-09-23T13:03:36.114Z,32.20
2017-09-23T13:06:05.531Z,27.80
2017-09-23T13:08:34.659Z,27.70
2017-09-23T13:11:03.702Z,27.43
2017-09-23T13:13:31.986Z,28.13
2017-09-23T13:16:01.690Z,27.20
2017-09-23T13:18:30.242Z,27.73
2017-09-23T13:20:58.523Z,26.70
2017-09-23T13:23:28.366Z,27.60
2017-09-23T13:25:57.418Z,25.47
2017-09-23T13:28:26.473Z,26.87
2017-09-23T13:30:54.798Z,27.10
2017-09-23T13:33:24.429Z,26.67
2017-09-23T13:35:53.372Z,23.97
2017-09-23T13:38:26.619Z,26.47
2017-09-23T13:40:55.547Z,27.57
2017-09-23T13:43:23.834Z,28.90
2017-09-23T13:45:52.185Z,27.27
2017-09-23T13:48:20.476Z,28.70
2017-09-23T13:50:50.121Z,30.00
2017-09-23T13:53:19.822Z,27.23
2017-09-23T13:55:48.103Z,27.83
2017-09-23T13:58:17.742Z,29.83
2017-09-23T14:00:46.210Z,26.53
2017-09-23T14:03:16.005Z,25.73
2017-09-23T14:05:45.050Z,27.80
2017-09-23T14:08:14.179Z,28.60
2017-09-23T14:10:43.810Z,30.53
2017-09-23T14:13:12.729Z,27.77
2017-09-23T14:15:41.739Z,27.23
2017-09-23T14:18:11.365Z,28.17
2017-09-23T14:20:39.523Z,25.33
2017-09-23T14:23:07.862Z,27.10
2017-09-23T14:25:37.672Z,28.17
2017-09-23T14:28:07.101Z,26.30
2017-09-23T14:30:36.858Z,26.87
2017-09-23T14:33:06.534Z,31.47
2017-09-23T14:35:35.958Z,29.10
2017-09-23T14:38:06.098Z,28.70
2017-09-23T14:40:35.890Z,25.57
2017-09-23T14:43:05.521Z,27.77
2017-09-23T14:45:34.506Z,28.87
2017-09-23T14:48:03.927Z,25.60
2017-09-23T14:50:32.602Z,25.50
2017-09-23T14:53:00.947Z,25.20
2017-09-23T14:55:29.236Z,25.40
2017-09-23T14:57:57.519Z,24.43
2017-09-23T15:00:27.710Z,21.60
2017-09-23T15:02:57.139Z,24.93
2017-09-23T15:05:25.430Z,24.60
2017-09-23T15:07:54.139Z,24.43
2017-09-23T15:10:23.199Z,25.13
2017-09-23T15:12:52.846Z,23.27
2017-09-23T15:15:21.716Z,21.83
2017-09-23T15:17:51.515Z,22.07
2017-09-23T15:20:19.811Z,23.30
2017-09-23T15:22:48.154Z,20.63
2017-09-23T15:25:16.438Z,21.43
2017-09-23T15:27:45.874Z,22.13
2017-09-23T15:30:14.203Z,19.87
2017-09-23T15:32:43.830Z,22.40
2017-09-23T15:35:12.393Z,22.00
2017-09-23T15:37:42.066Z,21.80
2017-09-23T15:40:10.997Z,21.90
2017-09-23T15:42:40.658Z,22.60
2017-09-23T15:45:09.262Z,22.70
2017-09-23T15:47:38.898Z,33.70
2017-09-23T15:50:08.414Z,27.90
2017-09-23T15:52:37.047Z,24.63
2017-09-23T15:55:08.130Z,26.53
2017-09-23T15:57:37.095Z,36.07
2017-09-23T16:00:06.794Z,40.27
2017-09-23T16:02:35.346Z,28.50
2017-09-23T16:05:04.027Z,36.30
2017-09-23T16:07:32.383Z,28.07
2017-09-23T16:10:00.662Z,23.17
2017-09-23T16:12:30.083Z,23.60
2017-09-23T16:14:58.422Z,25.57
2017-09-23T16:17:26.706Z,25.87
2017-09-23T16:19:54.990Z,26.87
2017-09-23T16:22:24.813Z,24.67
2017-09-23T16:24:53.507Z,27.10
2017-09-23T16:27:23.307Z,29.57
2017-09-23T16:29:51.659Z,29.70
2017-09-23T16:32:20.719Z,28.27
2017-09-23T16:34:50.374Z,27.13
2017-09-23T16:37:19.288Z,26.80
2017-09-23T16:39:49.092Z,25.47
2017-09-23T16:42:18.740Z,24.63
2017-09-23T16:44:48.124Z,25.17
2017-09-23T16:47:17.545Z,25.80
2017-09-23T16:49:45.827Z,28.87
2017-09-23T16:52:14.166Z,27.30
2017-09-23T16:54:43.601Z,25.30
2017-09-23T16:57:11.882Z,28.67
2017-09-23T16:59:40.210Z,28.23
2017-09-23T17:02:08.529Z,27.20
2017-09-23T17:04:36.835Z,26.87
2017-09-23T17:07:05.183Z,28.80
2017-09-23T17:09:33.476Z,30.17
2017-09-23T17:12:01.767Z,28.87
2017-09-23T17:14:31.634Z,29.43
2017-09-23T17:17:00.683Z,29.97
2017-09-23T17:19:28.972Z,29.33
2017-09-23T17:21:57.299Z,30.07
2017-09-23T17:24:27.094Z,30.67
2017-09-23T17:26:56.739Z,33.00
2017-09-23T17:29:25.384Z,34.43
2017-09-23T17:31:53.702Z,32.10
2017-09-23T17:34:22.000Z,34.40
2017-09-23T17:36:51.698Z,35.17
2017-09-23T17:39:20.640Z,34.60
2017-09-23T17:41:48.952Z,34.50
2017-09-23T17:44:18.693Z,36.40
2017-09-23T17:46:46.867Z,35.90
2017-09-23T17:49:15.559Z,36.57
2017-09-23T17:51:45.557Z,36.67
2017-09-23T17:54:15.223Z,37.40
2017-09-23T17:56:43.515Z,37.50
2017-09-23T17:59:12.633Z,35.93
2017-09-23T18:01:42.271Z,41.23
2017-09-23T18:04:11.826Z,36.80
2017-09-23T18:06:41.188Z,39.77
2017-09-23T18:09:10.820Z,39.73
2017-09-23T18:11:39.028Z,39.70
2017-09-23T18:14:07.361Z,40.50
2017-09-23T18:16:36.412Z,42.33
2017-09-23T18:19:06.247Z,40.80
2017-09-23T18:21:35.762Z,40.37
2017-09-23T18:24:04.050Z,40.77
2017-09-23T18:26:33.143Z,42.23
2017-09-23T18:29:02.603Z,40.60
2017-09-23T18:31:30.894Z,41.03
2017-09-23T18:33:59.260Z,43.87
2017-09-23T18:36:29.224Z,39.77
2017-09-23T18:38:57.508Z,43.00
2017-09-23T18:41:25.814Z,42.83
2017-09-23T18:43:55.525Z,41.60
2017-09-23T18:46:25.069Z,40.33
2017-09-23T18:48:53.247Z,37.87
2017-09-23T18:51:23.088Z,39.27
2017-09-23T18:53:51.407Z,39.00
2017-09-23T18:56:21.070Z,40.47
2017-09-23T18:58:49.302Z,44.90
2017-09-23T19:01:17.628Z,43.37
2017-09-23T19:03:47.308Z,41.27
2017-09-23T19:06:15.918Z,44.77
2017-09-23T19:08:44.588Z,42.70
2017-09-23T19:11:12.876Z,45.30
2017-09-23T19:13:42.715Z,43.93
2017-09-23T19:16:10.879Z,43.67
2017-09-23T19:18:39.563Z,44.60
2017-09-23T19:21:08.554Z,43.77
2017-09-23T19:23:37.608Z,42.47
2017-09-23T19:26:06.654Z,43.97
2017-09-23T19:28:35.026Z,41.07
2017-09-23T19:31:03.316Z,43.90
2017-09-23T19:33:32.954Z,45.87
2017-09-23T19:36:01.953Z,46.13
2017-09-23T19:38:31.007Z,46.37
2017-09-23T19:40:59.299Z,46.70
2017-09-23T19:43:27.650Z,46.20
2017-09-23T19:45:55.951Z,42.60
2017-09-23T19:48:25.596Z,43.77
2017-09-23T19:50:55.199Z,42.83
2017-09-23T19:53:24.496Z,45.37
2017-09-23T19:55:52.796Z,46.70
2017-09-23T19:58:21.147Z,44.87
2017-09-23T20:00:50.962Z,46.10
2017-09-23T20:03:20.628Z,46.67
2017-09-23T20:05:49.664Z,45.80
2017-09-23T20:08:18.374Z,47.63
2017-09-23T20:10:46.653Z,47.07
2017-09-23T20:13:15.772Z,50.40
2017-09-23T20:15:44.818Z,46.43
2017-09-23T20:18:14.461Z,49.40
2017-09-23T20:20:44.011Z,54.90
2017-09-23T20:23:13.686Z,52.30
2017-09-23T20:25:43.330Z,51.93
2017-09-23T20:28:11.826Z,51.77
2017-09-23T20:30:40.112Z,53.37
2017-09-23T20:33:09.762Z,55.67
2017-09-23T20:35:39.344Z,57.10
2017-09-23T20:38:07.512Z,52.77
2017-09-23T20:40:35.805Z,51.87
2017-09-23T20:43:05.756Z,55.53
2017-09-23T20:45:34.311Z,52.67
2017-09-23T20:48:02.600Z,46.27
2017-09-23T20:50:32.550Z,48.77
2017-09-23T20:53:02.074Z,49.50
2017-09-23T20:55:30.635Z,51.70
2017-09-23T20:58:00.309Z,52.90
2017-09-23T21:00:29.139Z,47.47
2017-09-23T21:02:58.772Z,51.20
2017-09-23T21:05:27.039Z,52.10
2017-09-23T21:07:56.090Z,49.23
2017-09-23T21:10:24.395Z,50.27
2017-09-23T21:12:53.916Z,50.23
2017-09-23T21:15:22.230Z,50.30
2017-09-23T21:17:50.532Z,50.90
2017-09-23T21:20:19.656Z,52.87
2017-09-23T21:22:48.729Z,50.63
2017-09-23T21:25:18.396Z,51.67
2017-09-23T21:27:48.115Z,50.47
2017-09-23T21:30:16.404Z,48.57
2017-09-23T21:32:46.195Z,50.87
2017-09-23T21:35:15.883Z,54.87
2017-09-23T21:37:44.437Z,50.50
2017-09-23T21:40:12.723Z,47.93
2017-09-23T21:42:41.446Z,44.50
2017-09-23T21:45:09.747Z,47.27
2017-09-23T21:47:39.178Z,43.33
2017-09-23T21:50:08.926Z,46.37
2017-09-23T21:52:37.494Z,46.37
2017-09-23T21:55:07.151Z,43.87
2017-09-23T21:57:36.122Z,45.73
2017-09-23T22:00:05.758Z,46.33
2017-09-23T22:02:34.321Z,46.60
2017-09-23T22:05:03.788Z,46.57
2017-09-23T22:07:33.421Z,47.90
2017-09-23T22:10:01.983Z,46.53
2017-09-23T22:12:31.670Z,42.37
2017-09-23T22:15:00.228Z,46.43
2017-09-23T22:17:30.418Z,47.97
2017-09-23T22:19:58.751Z,46.20
2017-09-23T22:22:27.038Z,44.40
2017-09-23T22:24:55.335Z,44.53
2017-09-23T22:27:23.819Z,46.63
2017-09-23T22:29:52.886Z,43.90
2017-09-23T22:32:21.948Z,46.67
2017-09-23T22:34:51.432Z,43.73
2017-09-23T22:37:19.723Z,45.40
2017-09-23T22:39:48.015Z,46.30
2017-09-23T22:42:17.696Z,45.90
2017-09-23T22:44:46.262Z,46.00
2017-09-23T22:47:14.550Z,44.83
2017-09-23T22:49:42.911Z,43.40
2017-09-23T22:52:11.962Z,45.47
2017-09-23T22:54:40.255Z,43.53
2017-09-23T22:57:08.642Z,42.30
2017-09-23T22:59:38.447Z,44.30
2017-09-23T23:02:06.737Z,44.90
2017-09-23T23:04:35.091Z,43.20
2017-09-23T23:07:04.730Z,46.03
2017-09-23T23:09:32.890Z,45.10
2017-09-23T23:12:01.235Z,45.30
2017-09-23T23:14:30.922Z,44.83
2017-09-23T23:16:59.479Z,41.03
2017-09-23T23:19:27.808Z,43.90
2017-09-23T23:21:56.090Z,45.83
2017-09-23T23:24:25.148Z,44.50
2017-09-23T23:26:54.246Z,45.47
2017-09-23T23:29:23.903Z,45.80
2017-09-23T23:31:53.433Z,46.83
2017-09-23T23:34:21.663Z,47.63
2017-09-23T23:36:49.973Z,46.97
2017-09-23T23:39:18.307Z,46.80
2017-09-23T23:41:48.570Z,45.90
2017-09-23T23:44:16.855Z,45.47
2017-09-23T23:46:45.134Z,46.73
2017-09-23T23:49:14.884Z,49.47
2017-09-23T23:51:44.511Z,47.07
2017-09-23T23:54:14.027Z,46.67
2017-09-23T23:56:43.606Z,45.83
2017-09-23T23:59:14.175Z,44.70
